sensor_id;sensor_type;location;lat;lon;timestamp;P1;durP1;ratioP1;P2;durP2;ratioP2
21505;SDS011;10914;48.886;9.394;2023-04-25T00:00:06;25.25;;;23.85;;
21505;SDS011;10914;48.886;9.394;2023-04-25T00:02:32;25.40;;;24.00;;
21505;SDS011;10914;48.886;9.394;2023-04-25T00:04:59;24.75;;;23.42;;
21505;SDS011;10914;48.886;9.394;2023-04-25T00:07:26;25.00;;;23.60;;
21505;SDS011;10914;48.886;9.394;2023-04-25T00:09:52;25.58;;;23.98;;
21505;SDS011;10914;48.886;9.394;2023-04-25T00:12:17;25.40;;;24.00;;
21505;SDS011;10914;48.886;9.394;2023-04-25T00:14:42;24.52;;;23.23;;
21505;SDS011;10914;48.886;9.394;2023-04-25T00:17:07;24.73;;;23.38;;
21505;SDS011;10914;48.886;9.394;2023-04-25T00:19:33;24.67;;;23.30;;
21505;SDS011;10914;48.886;9.394;2023-04-25T00:21:59;25.48;;;24.00;;
21505;SDS011;10914;48.886;9.394;2023-04-25T00:24:25;27.50;;;25.90;;
21505;SDS011;10914;48.886;9.394;2023-04-25T00:26:50;26.23;;;24.83;;
21505;SDS011;10914;48.886;9.394;2023-04-25T00:29:15;25.88;;;24.48;;
21505;SDS011;10914;48.886;9.394;2023-04-25T00:31:40;26.60;;;25.20;;
21505;SDS011;10914;48.886;9.394;2023-04-25T00:34:06;25.38;;;23.83;;
21505;SDS011;10914;48.886;9.394;2023-04-25T00:36:31;25.80;;;24.40;;
21505;SDS011;10914;48.886;9.394;2023-04-25T00:38:57;25.60;;;24.20;;
21505;SDS011;10914;48.886;9.394;2023-04-25T00:41:22;25.83;;;24.07;;
21505;SDS011;10914;48.886;9.394;2023-04-25T00:43:47;26.03;;;24.50;;
21505;SDS011;10914;48.886;9.394;2023-04-25T00:46:13;25.35;;;23.92;;
21505;SDS011;10914;48.886;9.394;2023-04-25T00:48:38;25.63;;;24.13;;
21505;SDS011;10914;48.886;9.394;2023-04-25T00:51:03;26.60;;;25.10;;
21505;SDS011;10914;48.886;9.394;2023-04-25T00:53:29;25.60;;;24.10;;
21505;SDS011;10914;48.886;9.394;2023-04-25T00:55:55;24.92;;;23.52;;
21505;SDS011;10914;48.886;9.394;2023-04-25T00:58:20;24.90;;;23.50;;
21505;SDS011;10914;48.886;9.394;2023-04-25T01:00:46;25.05;;;23.60;;
21505;SDS011;10914;48.886;9.394;2023-04-25T01:03:12;25.27;;;23.85;;
21505;SDS011;10914;48.886;9.394;2023-04-25T01:05:38;25.33;;;23.92;;
21505;SDS011;10914;48.886;9.394;2023-04-25T01:08:04;26.15;;;24.52;;
21505;SDS011;10914;48.886;9.394;2023-04-25T01:10:29;25.77;;;24.38;;
21505;SDS011;10914;48.886;9.394;2023-04-25T01:12:55;25.33;;;23.83;;
21505;SDS011;10914;48.886;9.394;2023-04-25T01:15:20;26.75;;;25.38;;
21505;SDS011;10914;48.886;9.394;2023-04-25T01:17:45;27.40;;;25.98;;
21505;SDS011;10914;48.886;9.394;2023-04-25T01:20:11;25.88;;;24.48;;
21505;SDS011;10914;48.886;9.394;2023-04-25T01:22:37;26.83;;;25.42;;
21505;SDS011;10914;48.886;9.394;2023-04-25T01:25:03;25.98;;;24.58;;
21505;SDS011;10914;48.886;9.394;2023-04-25T01:27:28;28.08;;;26.27;;
21505;SDS011;10914;48.886;9.394;2023-04-25T01:29:54;25.52;;;24.13;;
21505;SDS011;10914;48.886;9.394;2023-04-25T01:32:21;24.83;;;23.52;;
21505;SDS011;10914;48.886;9.394;2023-04-25T01:34:46;24.98;;;23.67;;
21505;SDS011;10914;48.886;9.394;2023-04-25T01:37:11;25.03;;;23.73;;
21505;SDS011;10914;48.886;9.394;2023-04-25T01:39:37;25.05;;;23.65;;
21505;SDS011;10914;48.886;9.394;2023-04-25T01:42:02;24.60;;;23.25;;
21505;SDS011;10914;48.886;9.394;2023-04-25T01:44:27;25.45;;;24.05;;
21505;SDS011;10914;48.886;9.394;2023-04-25T01:46:53;25.05;;;23.75;;
21505;SDS011;10914;48.886;9.394;2023-04-25T01:49:18;24.98;;;23.67;;
21505;SDS011;10914;48.886;9.394;2023-04-25T01:51:43;25.40;;;23.90;;
21505;SDS011;10914;48.886;9.394;2023-04-25T01:54:09;25.67;;;24.23;;
21505;SDS011;10914;48.886;9.394;2023-04-25T01:56:36;27.00;;;25.55;;
21505;SDS011;10914;48.886;9.394;2023-04-25T01:59:02;27.75;;;26.20;;
21505;SDS011;10914;48.886;9.394;2023-04-25T02:01:27;27.42;;;25.92;;
21505;SDS011;10914;48.886;9.394;2023-04-25T02:03:52;26.17;;;24.67;;
21505;SDS011;10914;48.886;9.394;2023-04-25T02:06:18;25.40;;;24.10;;
21505;SDS011;10914;48.886;9.394;2023-04-25T02:08:43;25.53;;;24.10;;
21505;SDS011;10914;48.886;9.394;2023-04-25T02:11:08;25.92;;;24.52;;
21505;SDS011;10914;48.886;9.394;2023-04-25T02:13:33;24.98;;;23.58;;
21505;SDS011;10914;48.886;9.394;2023-04-25T02:15:58;27.07;;;25.47;;
21505;SDS011;10914;48.886;9.394;2023-04-25T02:18:24;25.60;;;24.20;;
21505;SDS011;10914;48.886;9.394;2023-04-25T02:20:51;25.92;;;24.58;;
21505;SDS011;10914;48.886;9.394;2023-04-25T02:23:16;25.52;;;24.23;;
21505;SDS011;10914;48.886;9.394;2023-04-25T02:25:44;25.15;;;23.85;;
21505;SDS011;10914;48.886;9.394;2023-04-25T02:28:09;27.40;;;25.70;;
21505;SDS011;10914;48.886;9.394;2023-04-25T02:30:34;26.07;;;24.67;;
21505;SDS011;10914;48.886;9.394;2023-04-25T02:33:00;26.00;;;24.50;;
21505;SDS011;10914;48.886;9.394;2023-04-25T02:35:25;26.20;;;24.70;;
21505;SDS011;10914;48.886;9.394;2023-04-25T02:37:50;26.38;;;24.92;;
21505;SDS011;10914;48.886;9.394;2023-04-25T02:40:15;26.63;;;25.23;;
21505;SDS011;10914;48.886;9.394;2023-04-25T02:42:41;27.38;;;25.77;;
21505;SDS011;10914;48.886;9.394;2023-04-25T02:45:06;26.23;;;24.63;;
21505;SDS011;10914;48.886;9.394;2023-04-25T02:47:31;27.20;;;25.70;;
21505;SDS011;10914;48.886;9.394;2023-04-25T02:49:56;26.08;;;24.58;;
21505;SDS011;10914;48.886;9.394;2023-04-25T02:52:22;26.10;;;24.60;;
21505;SDS011;10914;48.886;9.394;2023-04-25T02:54:47;27.95;;;26.35;;
21505;SDS011;10914;48.886;9.394;2023-04-25T02:57:12;27.33;;;25.80;;
21505;SDS011;10914;48.886;9.394;2023-04-25T02:59:37;26.45;;;25.02;;
21505;SDS011;10914;48.886;9.394;2023-04-25T03:02:02;27.17;;;25.67;;
21505;SDS011;10914;48.886;9.394;2023-04-25T03:04:28;27.15;;;25.58;;
21505;SDS011;10914;48.886;9.394;2023-04-25T03:06:53;27.33;;;25.58;;
21505;SDS011;10914;48.886;9.394;2023-04-25T03:09:18;26.85;;;25.13;;
21505;SDS011;10914;48.886;9.394;2023-04-25T03:11:44;27.23;;;25.63;;
21505;SDS011;10914;48.886;9.394;2023-04-25T03:14:09;27.02;;;25.42;;
21505;SDS011;10914;48.886;9.394;2023-04-25T03:16:35;27.35;;;25.70;;
21505;SDS011;10914;48.886;9.394;2023-04-25T03:19:00;27.38;;;25.85;;
21505;SDS011;10914;48.886;9.394;2023-04-25T03:21:25;27.87;;;26.10;;
21505;SDS011;10914;48.886;9.394;2023-04-25T03:23:51;29.85;;;28.17;;
21505;SDS011;10914;48.886;9.394;2023-04-25T03:26:16;27.48;;;25.65;;
21505;SDS011;10914;48.886;9.394;2023-04-25T03:28:41;27.37;;;25.83;;
21505;SDS011;10914;48.886;9.394;2023-04-25T03:31:07;29.20;;;27.58;;
21505;SDS011;10914;48.886;9.394;2023-04-25T03:33:32;30.90;;;29.15;;
21505;SDS011;10914;48.886;9.394;2023-04-25T03:35:57;34.13;;;32.22;;
21505;SDS011;10914;48.886;9.394;2023-04-25T03:38:22;28.35;;;26.55;;
21505;SDS011;10914;48.886;9.394;2023-04-25T03:40:48;28.60;;;27.00;;
21505;SDS011;10914;48.886;9.394;2023-04-25T03:43:13;27.20;;;25.60;;
21505;SDS011;10914;48.886;9.394;2023-04-25T03:45:38;30.70;;;28.90;;
21505;SDS011;10914;48.886;9.394;2023-04-25T03:48:03;29.92;;;27.88;;
21505;SDS011;10914;48.886;9.394;2023-04-25T03:50:28;38.67;;;36.58;;
21505;SDS011;10914;48.886;9.394;2023-04-25T03:52:54;33.65;;;31.85;;
21505;SDS011;10914;48.886;9.394;2023-04-25T03:55:19;33.10;;;31.10;;
21505;SDS011;10914;48.886;9.394;2023-04-25T03:57:45;29.20;;;27.50;;
21505;SDS011;10914;48.886;9.394;2023-04-25T04:00:10;27.67;;;26.13;;
21505;SDS011;10914;48.886;9.394;2023-04-25T04:02:35;29.65;;;27.85;;
21505;SDS011;10914;48.886;9.394;2023-04-25T04:05:02;30.50;;;28.88;;
21505;SDS011;10914;48.886;9.394;2023-04-25T04:07:29;41.08;;;38.90;;
21505;SDS011;10914;48.886;9.394;2023-04-25T04:09:54;32.80;;;30.90;;
21505;SDS011;10914;48.886;9.394;2023-04-25T04:12:19;30.73;;;29.03;;
21505;SDS011;10914;48.886;9.394;2023-04-25T04:14:45;28.45;;;26.85;;
21505;SDS011;10914;48.886;9.394;2023-04-25T04:17:10;28.13;;;26.53;;
21505;SDS011;10914;48.886;9.394;2023-04-25T04:19:35;28.77;;;27.27;;
21505;SDS011;10914;48.886;9.394;2023-04-25T04:22:01;27.48;;;25.88;;
21505;SDS011;10914;48.886;9.394;2023-04-25T04:24:26;29.48;;;27.75;;
21505;SDS011;10914;48.886;9.394;2023-04-25T04:26:51;28.73;;;26.93;;
21505;SDS011;10914;48.886;9.394;2023-04-25T04:29:17;29.67;;;27.92;;
21505;SDS011;10914;48.886;9.394;2023-04-25T04:31:47;27.20;;;25.50;;
21505;SDS011;10914;48.886;9.394;2023-04-25T04:34:12;28.13;;;26.42;;
21505;SDS011;10914;48.886;9.394;2023-04-25T04:36:37;28.08;;;26.33;;
21505;SDS011;10914;48.886;9.394;2023-04-25T04:39:05;26.90;;;25.40;;
21505;SDS011;10914;48.886;9.394;2023-04-25T04:41:30;27.92;;;26.33;;
21505;SDS011;10914;48.886;9.394;2023-04-25T04:43:55;28.83;;;27.03;;
21505;SDS011;10914;48.886;9.394;2023-04-25T04:46:20;27.92;;;26.33;;
21505;SDS011;10914;48.886;9.394;2023-04-25T04:48:46;27.92;;;26.23;;
21505;SDS011;10914;48.886;9.394;2023-04-25T04:51:12;27.63;;;25.88;;
21505;SDS011;10914;48.886;9.394;2023-04-25T04:53:37;29.13;;;27.33;;
21505;SDS011;10914;48.886;9.394;2023-04-25T04:56:02;26.98;;;25.38;;
21505;SDS011;10914;48.886;9.394;2023-04-25T04:58:27;27.30;;;25.63;;
21505;SDS011;10914;48.886;9.394;2023-04-25T05:00:54;27.73;;;26.00;;
21505;SDS011;10914;48.886;9.394;2023-04-25T05:03:20;27.52;;;25.80;;
21505;SDS011;10914;48.886;9.394;2023-04-25T05:05:45;27.17;;;25.60;;
21505;SDS011;10914;48.886;9.394;2023-04-25T05:08:10;28.25;;;26.52;;
21505;SDS011;10914;48.886;9.394;2023-04-25T05:10:36;27.27;;;25.58;;
21505;SDS011;10914;48.886;9.394;2023-04-25T05:13:01;32.80;;;30.80;;
21505;SDS011;10914;48.886;9.394;2023-04-25T05:15:26;29.10;;;27.47;;
21505;SDS011;10914;48.886;9.394;2023-04-25T05:17:51;27.33;;;25.63;;
21505;SDS011;10914;48.886;9.394;2023-04-25T05:20:16;29.90;;;28.10;;
21505;SDS011;10914;48.886;9.394;2023-04-25T05:22:43;28.60;;;26.73;;
21505;SDS011;10914;48.886;9.394;2023-04-25T05:25:09;29.17;;;27.38;;
21505;SDS011;10914;48.886;9.394;2023-04-25T05:27:34;29.27;;;27.58;;
21505;SDS011;10914;48.886;9.394;2023-04-25T05:29:59;28.55;;;26.83;;
21505;SDS011;10914;48.886;9.394;2023-04-25T05:32:25;29.08;;;27.17;;
21505;SDS011;10914;48.886;9.394;2023-04-25T05:34:50;29.30;;;27.58;;
21505;SDS011;10914;48.886;9.394;2023-04-25T05:37:15;30.27;;;28.45;;
21505;SDS011;10914;48.886;9.394;2023-04-25T05:39:41;29.57;;;27.77;;
21505;SDS011;10914;48.886;9.394;2023-04-25T05:42:06;28.33;;;26.63;;
21505;SDS011;10914;48.886;9.394;2023-04-25T05:44:31;29.00;;;27.08;;
21505;SDS011;10914;48.886;9.394;2023-04-25T05:46:56;28.30;;;26.35;;
21505;SDS011;10914;48.886;9.394;2023-04-25T05:49:21;27.77;;;25.98;;
21505;SDS011;10914;48.886;9.394;2023-04-25T05:51:47;27.45;;;25.75;;
21505;SDS011;10914;48.886;9.394;2023-04-25T05:54:12;28.80;;;27.00;;
21505;SDS011;10914;48.886;9.394;2023-04-25T05:56:37;27.83;;;26.20;;
21505;SDS011;10914;48.886;9.394;2023-04-25T05:59:02;28.55;;;26.75;;
21505;SDS011;10914;48.886;9.394;2023-04-25T06:01:28;27.77;;;26.17;;
21505;SDS011;10914;48.886;9.394;2023-04-25T06:03:53;28.17;;;26.37;;
21505;SDS011;10914;48.886;9.394;2023-04-25T06:06:18;27.73;;;25.92;;
21505;SDS011;10914;48.886;9.394;2023-04-25T06:08:43;29.63;;;27.75;;
21505;SDS011;10914;48.886;9.394;2023-04-25T06:11:09;27.98;;;26.27;;
21505;SDS011;10914;48.886;9.394;2023-04-25T06:13:34;28.53;;;26.70;;
21505;SDS011;10914;48.886;9.394;2023-04-25T06:15:59;28.35;;;26.65;;
21505;SDS011;10914;48.886;9.394;2023-04-25T06:18:24;29.23;;;27.42;;
21505;SDS011;10914;48.886;9.394;2023-04-25T06:20:50;29.13;;;27.30;;
21505;SDS011;10914;48.886;9.394;2023-04-25T06:23:15;28.58;;;26.83;;
21505;SDS011;10914;48.886;9.394;2023-04-25T06:25:40;28.08;;;26.30;;
21505;SDS011;10914;48.886;9.394;2023-04-25T06:28:05;28.60;;;26.80;;
21505;SDS011;10914;48.886;9.394;2023-04-25T06:30:31;27.67;;;26.08;;
21505;SDS011;10914;48.886;9.394;2023-04-25T06:32:56;28.98;;;27.17;;
21505;SDS011;10914;48.886;9.394;2023-04-25T06:35:21;28.52;;;26.75;;
21505;SDS011;10914;48.886;9.394;2023-04-25T06:37:46;27.50;;;25.80;;
21505;SDS011;10914;48.886;9.394;2023-04-25T06:40:12;26.65;;;25.05;;
21505;SDS011;10914;48.886;9.394;2023-04-25T06:42:37;26.45;;;24.98;;
21505;SDS011;10914;48.886;9.394;2023-04-25T06:45:02;29.33;;;27.65;;
21505;SDS011;10914;48.886;9.394;2023-04-25T06:47:28;28.80;;;27.23;;
21505;SDS011;10914;48.886;9.394;2023-04-25T06:49:54;28.90;;;27.23;;
21505;SDS011;10914;48.886;9.394;2023-04-25T06:52:20;29.88;;;28.08;;
21505;SDS011;10914;48.886;9.394;2023-04-25T06:54:45;30.17;;;28.42;;
21505;SDS011;10914;48.886;9.394;2023-04-25T06:57:10;30.45;;;28.48;;
21505;SDS011;10914;48.886;9.394;2023-04-25T06:59:35;30.67;;;28.83;;
21505;SDS011;10914;48.886;9.394;2023-04-25T07:02:01;30.50;;;28.80;;
21505;SDS011;10914;48.886;9.394;2023-04-25T07:04:26;28.08;;;26.52;;
21505;SDS011;10914;48.886;9.394;2023-04-25T07:06:51;27.10;;;25.53;;
21505;SDS011;10914;48.886;9.394;2023-04-25T07:09:16;27.13;;;25.52;;
21505;SDS011;10914;48.886;9.394;2023-04-25T07:11:41;27.87;;;26.17;;
21505;SDS011;10914;48.886;9.394;2023-04-25T07:14:07;27.05;;;25.45;;
21505;SDS011;10914;48.886;9.394;2023-04-25T07:16:32;27.80;;;26.20;;
21505;SDS011;10914;48.886;9.394;2023-04-25T07:18:57;26.77;;;25.27;;
21505;SDS011;10914;48.886;9.394;2023-04-25T07:21:22;28.08;;;26.27;;
21505;SDS011;10914;48.886;9.394;2023-04-25T07:23:48;28.90;;;27.10;;
21505;SDS011;10914;48.886;9.394;2023-04-25T07:26:13;27.40;;;25.80;;
21505;SDS011;10914;48.886;9.394;2023-04-25T07:28:38;28.60;;;26.90;;
21505;SDS011;10914;48.886;9.394;2023-04-25T07:31:03;28.35;;;26.65;;
21505;SDS011;10914;48.886;9.394;2023-04-25T07:33:28;29.73;;;28.03;;
21505;SDS011;10914;48.886;9.394;2023-04-25T07:35:54;30.75;;;28.85;;
21505;SDS011;10914;48.886;9.394;2023-04-25T07:38:20;31.15;;;29.25;;
21505;SDS011;10914;48.886;9.394;2023-04-25T07:40:48;32.25;;;30.35;;
21505;SDS011;10914;48.886;9.394;2023-04-25T07:43:13;31.85;;;29.95;;
21505;SDS011;10914;48.886;9.394;2023-04-25T07:45:41;32.05;;;30.25;;
21505;SDS011;10914;48.886;9.394;2023-04-25T07:48:07;31.73;;;29.48;;
21505;SDS011;10914;48.886;9.394;2023-04-25T07:50:32;31.92;;;30.13;;
21505;SDS011;10914;48.886;9.394;2023-04-25T07:52:57;32.38;;;30.38;;
21505;SDS011;10914;48.886;9.394;2023-04-25T07:55:23;30.15;;;28.50;;
21505;SDS011;10914;48.886;9.394;2023-04-25T07:57:48;31.42;;;29.30;;
21505;SDS011;10914;48.886;9.394;2023-04-25T08:00:13;30.42;;;28.73;;
21505;SDS011;10914;48.886;9.394;2023-04-25T08:02:40;32.15;;;30.30;;
21505;SDS011;10914;48.886;9.394;2023-04-25T08:05:05;31.45;;;29.55;;
21505;SDS011;10914;48.886;9.394;2023-04-25T08:07:32;31.02;;;29.20;;
21505;SDS011;10914;48.886;9.394;2023-04-25T08:09:58;31.70;;;29.80;;
21505;SDS011;10914;48.886;9.394;2023-04-25T08:12:23;31.60;;;29.75;;
21505;SDS011;10914;48.886;9.394;2023-04-25T08:14:48;32.00;;;30.08;;
21505;SDS011;10914;48.886;9.394;2023-04-25T08:17:13;31.67;;;29.65;;
21505;SDS011;10914;48.886;9.394;2023-04-25T08:19:39;30.42;;;28.58;;
21505;SDS011;10914;48.886;9.394;2023-04-25T08:22:04;34.28;;;32.17;;
21505;SDS011;10914;48.886;9.394;2023-04-25T08:24:29;30.40;;;28.40;;
21505;SDS011;10914;48.886;9.394;2023-04-25T08:26:54;29.87;;;27.77;;
21505;SDS011;10914;48.886;9.394;2023-04-25T08:29:20;30.08;;;28.05;;
21505;SDS011;10914;48.886;9.394;2023-04-25T08:31:45;27.83;;;26.13;;
21505;SDS011;10914;48.886;9.394;2023-04-25T08:34:10;29.15;;;27.35;;
21505;SDS011;10914;48.886;9.394;2023-04-25T08:36:36;29.98;;;27.98;;
21505;SDS011;10914;48.886;9.394;2023-04-25T08:39:01;30.27;;;28.10;;
21505;SDS011;10914;48.886;9.394;2023-04-25T08:41:26;30.38;;;28.42;;
21505;SDS011;10914;48.886;9.394;2023-04-25T08:43:51;31.00;;;28.90;;
21505;SDS011;10914;48.886;9.394;2023-04-25T08:46:18;32.08;;;29.77;;
21505;SDS011;10914;48.886;9.394;2023-04-25T08:48:44;31.25;;;29.17;;
21505;SDS011;10914;48.886;9.394;2023-04-25T08:51:10;31.40;;;29.30;;
21505;SDS011;10914;48.886;9.394;2023-04-25T08:53:39;30.25;;;28.15;;
21505;SDS011;10914;48.886;9.394;2023-04-25T08:56:07;30.65;;;28.35;;
21505;SDS011;10914;48.886;9.394;2023-04-25T08:58:34;29.00;;;27.13;;
21505;SDS011;10914;48.886;9.394;2023-04-25T09:01:00;31.40;;;29.30;;
21505;SDS011;10914;48.886;9.394;2023-04-25T09:03:25;33.03;;;30.92;;
21505;SDS011;10914;48.886;9.394;2023-04-25T09:05:51;32.33;;;30.33;;
21505;SDS011;10914;48.886;9.394;2023-04-25T09:08:16;35.10;;;32.90;;
21505;SDS011;10914;48.886;9.394;2023-04-25T09:10:41;35.47;;;33.08;;
21505;SDS011;10914;48.886;9.394;2023-04-25T09:13:08;33.50;;;31.50;;
21505;SDS011;10914;48.886;9.394;2023-04-25T09:15:53;35.67;;;33.45;;
21505;SDS011;10914;48.886;9.394;2023-04-25T09:18:22;34.95;;;32.75;;
21505;SDS011;10914;48.886;9.394;2023-04-25T09:20:49;35.20;;;33.00;;
21505;SDS011;10914;48.886;9.394;2023-04-25T09:23:15;34.50;;;32.28;;
21505;SDS011;10914;48.886;9.394;2023-04-25T09:25:40;33.80;;;31.60;;
21505;SDS011;10914;48.886;9.394;2023-04-25T09:28:07;32.08;;;30.13;;
21505;SDS011;10914;48.886;9.394;2023-04-25T09:30:33;31.08;;;28.95;;
21505;SDS011;10914;48.886;9.394;2023-04-25T09:33:05;32.00;;;29.90;;
21505;SDS011;10914;48.886;9.394;2023-04-25T09:35:35;30.88;;;28.88;;
21505;SDS011;10914;48.886;9.394;2023-04-25T09:38:00;31.33;;;29.23;;
21505;SDS011;10914;48.886;9.394;2023-04-25T09:40:25;31.40;;;29.20;;
21505;SDS011;10914;48.886;9.394;2023-04-25T09:42:51;31.13;;;29.13;;
21505;SDS011;10914;48.886;9.394;2023-04-25T09:45:16;29.77;;;27.88;;
21505;SDS011;10914;48.886;9.394;2023-04-25T09:47:41;31.05;;;29.00;;
21505;SDS011;10914;48.886;9.394;2023-04-25T09:50:15;31.63;;;29.55;;
21505;SDS011;10914;48.886;9.394;2023-04-25T09:52:41;29.33;;;27.38;;
21505;SDS011;10914;48.886;9.394;2023-04-25T09:55:06;29.65;;;27.73;;
21505;SDS011;10914;48.886;9.394;2023-04-25T09:57:31;30.70;;;28.52;;
21505;SDS011;10914;48.886;9.394;2023-04-25T09:59:56;29.70;;;27.80;;
21505;SDS011;10914;48.886;9.394;2023-04-25T10:02:26;29.17;;;27.38;;
21505;SDS011;10914;48.886;9.394;2023-04-25T10:04:52;29.88;;;27.80;;
21505;SDS011;10914;48.886;9.394;2023-04-25T10:07:19;32.00;;;29.77;;
21505;SDS011;10914;48.886;9.394;2023-04-25T10:09:47;32.25;;;29.92;;
21505;SDS011;10914;48.886;9.394;2023-04-25T10:12:12;34.92;;;32.63;;
21505;SDS011;10914;48.886;9.394;2023-04-25T10:14:38;33.72;;;31.63;;
21505;SDS011;10914;48.886;9.394;2023-04-25T10:17:03;34.05;;;31.95;;
21505;SDS011;10914;48.886;9.394;2023-04-25T10:19:29;28.95;;;27.10;;
21505;SDS011;10914;48.886;9.394;2023-04-25T10:22:08;28.73;;;27.02;;
21505;SDS011;10914;48.886;9.394;2023-04-25T10:24:36;29.00;;;27.30;;
21505;SDS011;10914;48.886;9.394;2023-04-25T10:27:02;28.52;;;26.83;;
21505;SDS011;10914;48.886;9.394;2023-04-25T10:29:28;28.88;;;26.98;;
21505;SDS011;10914;48.886;9.394;2023-04-25T10:31:53;28.60;;;26.83;;
21505;SDS011;10914;48.886;9.394;2023-04-25T10:34:18;32.50;;;30.23;;
21505;SDS011;10914;48.886;9.394;2023-04-25T10:36:51;32.38;;;30.27;;
21505;SDS011;10914;48.886;9.394;2023-04-25T10:39:23;31.23;;;29.23;;
21505;SDS011;10914;48.886;9.394;2023-04-25T10:42:06;33.00;;;30.73;;
21505;SDS011;10914;48.886;9.394;2023-04-25T10:44:33;30.83;;;28.83;;
21505;SDS011;10914;48.886;9.394;2023-04-25T10:47:01;29.17;;;27.35;;
21505;SDS011;10914;48.886;9.394;2023-04-25T10:49:37;30.13;;;28.08;;
21505;SDS011;10914;48.886;9.394;2023-04-25T10:52:13;30.60;;;28.60;;
21505;SDS011;10914;48.886;9.394;2023-04-25T10:54:42;31.88;;;29.70;;
21505;SDS011;10914;48.886;9.394;2023-04-25T10:57:08;30.70;;;28.60;;
21505;SDS011;10914;48.886;9.394;2023-04-25T10:59:50;32.50;;;30.20;;
21505;SDS011;10914;48.886;9.394;2023-04-25T11:02:37;32.45;;;30.27;;
21505;SDS011;10914;48.886;9.394;2023-04-25T11:05:03;32.92;;;30.83;;
21505;SDS011;10914;48.886;9.394;2023-04-25T11:10:03;33.88;;;31.42;;
21505;SDS011;10914;48.886;9.394;2023-04-25T11:12:29;32.72;;;30.50;;
21505;SDS011;10914;48.886;9.394;2023-04-25T11:14:58;33.75;;;31.45;;
21505;SDS011;10914;48.886;9.394;2023-04-25T11:17:24;34.13;;;31.73;;
21505;SDS011;10914;48.886;9.394;2023-04-25T11:19:50;33.53;;;31.17;;
21505;SDS011;10914;48.886;9.394;2023-04-25T11:22:15;33.20;;;31.00;;
21505;SDS011;10914;48.886;9.394;2023-04-25T11:24:40;34.72;;;32.00;;
21505;SDS011;10914;48.886;9.394;2023-04-25T11:27:06;35.72;;;32.95;;
21505;SDS011;10914;48.886;9.394;2023-04-25T11:29:32;34.70;;;32.20;;
21505;SDS011;10914;48.886;9.394;2023-04-25T11:31:57;33.33;;;30.92;;
21505;SDS011;10914;48.886;9.394;2023-04-25T11:34:23;33.63;;;30.98;;
21505;SDS011;10914;48.886;9.394;2023-04-25T11:36:49;32.47;;;30.30;;
21505;SDS011;10914;48.886;9.394;2023-04-25T11:39:15;31.85;;;29.65;;
21505;SDS011;10914;48.886;9.394;2023-04-25T11:41:41;31.33;;;29.10;;
21505;SDS011;10914;48.886;9.394;2023-04-25T11:44:06;35.80;;;33.28;;
21505;SDS011;10914;48.886;9.394;2023-04-25T11:46:34;32.80;;;30.75;;
21505;SDS011;10914;48.886;9.394;2023-04-25T11:49:00;31.00;;;28.90;;
21505;SDS011;10914;48.886;9.394;2023-04-25T11:51:25;29.52;;;27.52;;
21505;SDS011;10914;48.886;9.394;2023-04-25T11:53:51;28.73;;;26.88;;
21505;SDS011;10914;48.886;9.394;2023-04-25T11:56:16;29.85;;;28.05;;
21505;SDS011;10914;48.886;9.394;2023-04-25T11:59:01;31.80;;;29.67;;
21505;SDS011;10914;48.886;9.394;2023-04-25T12:03:52;26.30;;;24.90;;
21505;SDS011;10914;48.886;9.394;2023-04-25T12:06:18;26.00;;;24.60;;
21505;SDS011;10914;48.886;9.394;2023-04-25T12:09:02;26.02;;;24.55;;
21505;SDS011;10914;48.886;9.394;2023-04-25T12:11:29;25.70;;;24.25;;
21505;SDS011;10914;48.886;9.394;2023-04-25T12:13:54;27.58;;;25.98;;
21505;SDS011;10914;48.886;9.394;2023-04-25T12:16:20;26.27;;;24.77;;
21505;SDS011;10914;48.886;9.394;2023-04-25T12:18:45;26.40;;;24.90;;
21505;SDS011;10914;48.886;9.394;2023-04-25T12:21:10;27.00;;;25.40;;
21505;SDS011;10914;48.886;9.394;2023-04-25T12:23:37;27.02;;;25.52;;
21505;SDS011;10914;48.886;9.394;2023-04-25T12:26:03;27.35;;;25.85;;
21505;SDS011;10914;48.886;9.394;2023-04-25T12:28:28;28.35;;;26.42;;
21505;SDS011;10914;48.886;9.394;2023-04-25T12:31:01;27.13;;;25.63;;
21505;SDS011;10914;48.886;9.394;2023-04-25T12:33:31;26.40;;;24.90;;
21505;SDS011;10914;48.886;9.394;2023-04-25T12:35:56;26.92;;;25.33;;
21505;SDS011;10914;48.886;9.394;2023-04-25T12:38:29;27.95;;;26.35;;
21505;SDS011;10914;48.886;9.394;2023-04-25T12:40:55;25.83;;;24.33;;
21505;SDS011;10914;48.886;9.394;2023-04-25T12:43:21;26.75;;;25.25;;
21505;SDS011;10914;48.886;9.394;2023-04-25T12:45:50;25.67;;;24.27;;
21505;SDS011;10914;48.886;9.394;2023-04-25T12:48:19;27.42;;;25.83;;
21505;SDS011;10914;48.886;9.394;2023-04-25T12:50:44;28.65;;;26.95;;
21505;SDS011;10914;48.886;9.394;2023-04-25T12:53:12;27.90;;;26.20;;
21505;SDS011;10914;48.886;9.394;2023-04-25T12:55:38;27.83;;;25.80;;
21505;SDS011;10914;48.886;9.394;2023-04-25T12:58:03;29.10;;;27.20;;
21505;SDS011;10914;48.886;9.394;2023-04-25T13:00:28;28.77;;;26.83;;
21505;SDS011;10914;48.886;9.394;2023-04-25T13:02:54;28.50;;;26.70;;
21505;SDS011;10914;48.886;9.394;2023-04-25T13:05:19;28.23;;;26.23;;
21505;SDS011;10914;48.886;9.394;2023-04-25T13:10:31;29.83;;;27.92;;
21505;SDS011;10914;48.886;9.394;2023-04-25T13:19:04;26.02;;;24.52;;
21505;SDS011;10914;48.886;9.394;2023-04-25T13:21:30;28.80;;;27.08;;
21505;SDS011;10914;48.886;9.394;2023-04-25T13:23:57;29.20;;;27.50;;
21505;SDS011;10914;48.886;9.394;2023-04-25T13:26:23;29.70;;;27.90;;
21505;SDS011;10914;48.886;9.394;2023-04-25T13:28:48;25.27;;;23.58;;
21505;SDS011;10914;48.886;9.394;2023-04-25T13:31:13;26.33;;;24.70;;
21505;SDS011;10914;48.886;9.394;2023-04-25T13:33:38;25.97;;;24.33;;
21505;SDS011;10914;48.886;9.394;2023-04-25T13:36:03;25.53;;;23.83;;
21505;SDS011;10914;48.886;9.394;2023-04-25T13:38:29;26.80;;;24.90;;
21505;SDS011;10914;48.886;9.394;2023-04-25T13:40:54;28.80;;;26.85;;
21505;SDS011;10914;48.886;9.394;2023-04-25T13:43:19;32.58;;;30.42;;
21505;SDS011;10914;48.886;9.394;2023-04-25T13:45:46;32.40;;;30.33;;
21505;SDS011;10914;48.886;9.394;2023-04-25T13:48:11;30.87;;;28.77;;
21505;SDS011;10914;48.886;9.394;2023-04-25T13:50:36;28.10;;;26.03;;
21505;SDS011;10914;48.886;9.394;2023-04-25T13:53:02;28.97;;;26.80;;
21505;SDS011;10914;48.886;9.394;2023-04-25T13:55:27;28.03;;;26.23;;
21505;SDS011;10914;48.886;9.394;2023-04-25T13:57:52;27.48;;;25.67;;
21505;SDS011;10914;48.886;9.394;2023-04-25T14:00:17;32.00;;;29.50;;
21505;SDS011;10914;48.886;9.394;2023-04-25T14:02:42;33.78;;;31.40;;
21505;SDS011;10914;48.886;9.394;2023-04-25T14:05:08;31.37;;;29.17;;
21505;SDS011;10914;48.886;9.394;2023-04-25T14:07:34;31.10;;;29.00;;
21505;SDS011;10914;48.886;9.394;2023-04-25T14:10:02;31.45;;;29.27;;
21505;SDS011;10914;48.886;9.394;2023-04-25T14:12:27;32.55;;;30.15;;
21505;SDS011;10914;48.886;9.394;2023-04-25T14:14:52;32.27;;;29.73;;
21505;SDS011;10914;48.886;9.394;2023-04-25T14:17:18;29.93;;;27.73;;
21505;SDS011;10914;48.886;9.394;2023-04-25T14:19:43;30.95;;;28.95;;
21505;SDS011;10914;48.886;9.394;2023-04-25T14:22:10;27.17;;;25.33;;
21505;SDS011;10914;48.886;9.394;2023-04-25T14:24:36;28.17;;;26.27;;
21505;SDS011;10914;48.886;9.394;2023-04-25T14:27:01;25.98;;;24.30;;